Time;durP1;ratioP1;P1;durP2;ratioP2;P2;SDS_P1;SDS_P2;PMS_P1;PMS_P2;Temp;Humidity;BMP_temperature;BMP_pressure;BME280_temperature;BME280_humidity;BME280_pressure;Samples;Min_cycle;Max_cycle;Signal;HPM_P1;HPM_P2
2023/06/10 00:01:57;;;;;;;1.23;0.90;;;21.40;86.30;;;;;;5004630;28;20194;-65
2023/06/10 00:04:26;;;;;;;4.40;1.40;;;21.40;86.30;;;;;;4997238;28;20195;-65
2023/06/10 00:06:53;;;;;;;1.00;0.90;;;21.40;86.40;;;;;;4995027;28;20642;-65
2023/06/10 00:09:21;;;;;;;1.40;1.30;;;21.40;86.40;;;;;;4977291;28;20200;-65
2023/06/10 00:11:48;;;;;;;1.30;1.20;;;21.30;86.30;;;;;;4981458;28;20247;-64
2023/06/10 00:14:15;;;;;;;1.05;1.05;;;21.30;86.40;;;;;;4992215;28;20235;-65
2023/06/10 00:16:44;;;;;;;1.10;1.10;;;21.30;86.30;;;;;;4991683;28;20199;-65
2023/06/10 00:19:13;;;;;;;1.67;1.15;;;21.30;86.40;;;;;;4978597;28;20264;-65
2023/06/10 00:21:41;;;;;;;1.33;1.15;;;21.30;86.40;;;;;;4982674;28;20387;-64
2023/06/10 00:24:11;;;;;;;0.80;0.80;;;21.30;86.40;;;;;;4988078;28;20673;-64
2023/06/10 00:26:39;;;;;;;0.93;0.93;;;21.30;86.40;;;;;;4992005;28;20684;-65
2023/06/10 00:29:06;;;;;;;1.23;1.15;;;21.30;87.30;;;;;;4991333;28;20292;-65
2023/06/10 00:31:34;;;;;;;2.88;1.05;;;21.30;86.60;;;;;;4985767;28;20283;-65
2023/06/10 00:34:02;;;;;;;0.85;0.85;;;21.30;86.70;;;;;;4989111;28;20219;-65
2023/06/10 00:36:29;;;;;;;0.90;0.90;;;21.30;86.80;;;;;;4991680;28;20262;-66
2023/06/10 00:38:58;;;;;;;0.90;0.90;;;21.30;87.00;;;;;;4965354;28;20526;-65
2023/06/10 00:41:26;;;;;;;0.80;0.80;;;21.30;87.20;;;;;;4966186;28;20212;-65
2023/06/10 00:43:53;;;;;;;1.17;1.10;;;21.30;87.40;;;;;;4974235;28;20672;-66
2023/06/10 00:46:21;;;;;;;0.90;0.90;;;21.20;87.40;;;;;;4979306;28;20196;-65
2023/06/10 00:48:49;;;;;;;1.90;0.95;;;21.30;87.70;;;;;;4986605;28;20216;-65
2023/06/10 00:51:17;;;;;;;0.90;0.90;;;21.30;87.80;;;;;;4971802;28;20207;-66
2023/06/10 00:53:45;;;;;;;0.80;0.80;;;21.30;87.90;;;;;;4990515;28;20243;-65
2023/06/10 00:56:15;;;;;;;1.17;0.90;;;21.20;88.00;;;;;;4961565;28;20204;-66
2023/06/10 00:58:42;;;;;;;3.58;1.00;;;21.20;88.10;;;;;;4980362;28;20617;-66
2023/06/10 01:01:11;;;;;;;2.28;1.27;;;21.20;88.30;;;;;;4990254;28;20215;-65
2023/06/10 01:03:38;;;;;;;1.20;1.00;;;21.10;88.40;;;;;;4973103;28;20206;-65
2023/06/10 01:06:17;;;;;;;0.95;0.95;;;21.10;88.60;;;;;;4984360;28;20251;-65
2023/06/10 01:08:52;;;;;;;0.73;0.73;;;21.10;88.70;;;;;;4971717;28;20231;-65
2023/06/10 01:11:26;;;;;;;0.90;0.90;;;21.10;88.60;;;;;;4991283;28;20195;-65
2023/06/10 01:13:56;;;;;;;1.00;1.00;;;21.10;88.60;;;;;;4991494;28;20211;-65
2023/06/10 01:16:25;;;;;;;1.10;1.10;;;21.10;88.60;;;;;;4990751;28;20191;-65
2023/06/10 01:18:52;;;;;;;2.13;1.10;;;21.00;88.50;;;;;;4993238;28;20701;-65
2023/06/10 01:21:24;;;;;;;0.85;0.85;;;21.00;88.40;;;;;;4995952;28;20204;-65
2023/06/10 01:23:52;;;;;;;0.93;0.93;;;21.00;88.40;;;;;;5000023;28;20199;-65
2023/06/10 01:26:23;;;;;;;1.05;0.95;;;21.00;88.40;;;;;;4991134;28;20203;-66
2023/06/10 01:28:58;;;;;;;1.02;1.00;;;21.00;88.30;;;;;;4972686;28;20207;-65
2023/06/10 01:31:33;;;;;;;3.53;0.90;;;20.90;88.20;;;;;;4991160;28;20575;-65
2023/06/10 01:34:02;;;;;;;1.25;1.15;;;20.90;88.10;;;;;;4991109;28;20629;-65
2023/06/10 01:36:34;;;;;;;1.75;1.00;;;21.00;88.20;;;;;;4973239;28;20215;-65
2023/06/10 01:39:03;;;;;;;1.10;1.02;;;20.90;88.00;;;;;;4972877;28;20307;-65
2023/06/10 01:41:30;;;;;;;0.93;0.90;;;20.90;88.00;;;;;;4973612;28;20227;-65
2023/06/10 01:43:57;;;;;;;1.95;0.80;;;20.90;88.00;;;;;;4991299;28;20535;-65
2023/06/10 01:46:24;;;;;;;2.08;1.30;;;20.80;88.60;;;;;;4990195;28;20305;-65
2023/06/10 01:48:51;;;;;;;0.85;0.85;;;20.80;87.80;;;;;;4973048;28;20196;-65
2023/06/10 01:51:19;;;;;;;0.90;0.90;;;20.80;87.80;;;;;;4987191;28;20614;-65
2023/06/10 01:53:47;;;;;;;0.90;0.90;;;20.80;87.80;;;;;;4976792;28;20246;-65
2023/06/10 01:56:17;;;;;;;1.15;0.80;;;20.80;87.60;;;;;;4994828;28;20243;-65
2023/06/10 01:58:45;;;;;;;1.58;0.90;;;20.70;87.40;;;;;;4994598;28;20263;-65
2023/06/10 02:01:12;;;;;;;0.98;0.98;;;20.70;87.40;;;;;;4976442;28;20207;-65
2023/06/10 02:03:40;;;;;;;1.95;0.98;;;20.70;87.40;;;;;;4986618;28;20554;-65
2023/06/10 02:06:07;;;;;;;1.10;1.00;;;20.60;87.40;;;;;;4972050;28;20227;-65
2023/06/10 02:08:34;;;;;;;1.63;0.90;;;20.60;87.40;;;;;;4993464;28;20258;-65
2023/06/10 02:11:02;;;;;;;0.80;0.80;;;20.60;87.40;;;;;;4977044;28;20726;-65
2023/06/10 02:13:30;;;;;;;1.17;1.08;;;20.60;87.30;;;;;;4994206;28;20216;-65
2023/06/10 02:15:57;;;;;;;0.80;0.80;;;20.60;87.30;;;;;;4993929;28;20200;-65
2023/06/10 02:18:27;;;;;;;0.95;0.88;;;20.60;87.30;;;;;;4964642;28;20207;-65
2023/06/10 02:20:55;;;;;;;1.88;1.00;;;20.60;87.20;;;;;;4994339;28;20255;-65
2023/06/10 02:23:23;;;;;;;1.15;1.02;;;20.60;87.10;;;;;;4993837;28;20219;-65
2023/06/10 02:25:50;;;;;;;0.90;0.90;;;20.50;86.80;;;;;;4994455;28;20679;-65
2023/06/10 02:28:20;;;;;;;0.90;0.90;;;20.50;86.80;;;;;;4975192;28;20307;-65
2023/06/10 02:30:47;;;;;;;1.42;1.30;;;20.50;86.80;;;;;;4976590;28;20290;-65
2023/06/10 02:33:14;;;;;;;3.10;1.27;;;20.50;86.60;;;;;;4975889;28;20215;-65
2023/06/10 02:35:42;;;;;;;1.83;1.08;;;20.50;86.50;;;;;;4976299;28;20262;-65
2023/06/10 02:38:10;;;;;;;1.10;1.10;;;20.40;86.40;;;;;;4993180;28;20677;-65
2023/06/10 02:40:37;;;;;;;1.02;1.02;;;20.40;86.20;;;;;;4992905;28;20211;-65
2023/06/10 02:43:04;;;;;;;2.40;0.80;;;20.40;86.80;;;;;;4976282;28;20295;-65
2023/06/10 02:45:33;;;;;;;0.80;0.80;;;20.40;86.00;;;;;;4976148;28;20554;-65
2023/06/10 02:48:02;;;;;;;3.92;0.95;;;20.40;86.50;;;;;;4964637;28;20243;-65
2023/06/10 02:50:30;;;;;;;1.30;0.98;;;20.40;85.50;;;;;;4971640;28;20223;-65
2023/06/10 02:53:29;;;;;;;0.75;0.73;;;20.40;85.20;;;;;;4977655;28;20227;-65
2023/06/10 02:56:04;;;;;;;1.95;0.90;;;20.40;84.90;;;;;;4976459;28;20203;-66
2023/06/10 02:58:32;;;;;;;0.80;0.80;;;20.40;84.70;;;;;;4972428;28;20235;-65
2023/06/10 03:01:01;;;;;;;0.80;0.80;;;20.40;84.60;;;;;;4978963;28;20210;-65
2023/06/10 03:03:34;;;;;;;0.98;0.93;;;20.40;84.40;;;;;;4979427;28;20198;-65
2023/06/10 03:06:08;;;;;;;0.90;0.90;;;20.40;84.30;;;;;;4978718;28;20314;-65
2023/06/10 03:08:35;;;;;;;0.90;0.90;;;20.40;84.20;;;;;;4972502;28;20205;-65
2023/06/10 03:11:07;;;;;;;0.82;0.82;;;20.40;84.20;;;;;;4994399;28;20188;-64
2023/06/10 03:13:35;;;;;;;0.95;0.90;;;20.40;84.20;;;;;;4966384;28;20224;-64
2023/06/10 03:16:05;;;;;;;0.95;0.90;;;20.40;84.10;;;;;;4965092;28;20243;-64
2023/06/10 03:18:35;;;;;;;0.80;0.80;;;20.40;84.00;;;;;;4977496;28;20584;-64
2023/06/10 03:21:03;;;;;;;0.65;0.65;;;20.40;83.90;;;;;;4985199;28;20197;-64
2023/06/10 03:23:30;;;;;;;0.80;0.80;;;20.40;83.80;;;;;;4992678;28;20192;-64
2023/06/10 03:25:57;;;;;;;0.70;0.70;;;20.30;83.70;;;;;;5014012;28;20266;-65
2023/06/10 03:28:25;;;;;;;0.80;0.80;;;20.40;83.60;;;;;;4972198;28;20748;-65
2023/06/10 03:30:52;;;;;;;0.82;0.82;;;20.40;83.20;;;;;;4982238;28;20200;-65
2023/06/10 03:33:23;;;;;;;0.88;0.88;;;20.40;83.10;;;;;;4965017;28;20213;-64
2023/06/10 03:35:51;;;;;;;1.00;1.00;;;20.40;82.80;;;;;;4974760;28;20200;-65
2023/06/10 03:38:18;;;;;;;0.90;0.90;;;20.30;82.40;;;;;;4994343;28;20275;-65
2023/06/10 03:40:46;;;;;;;1.05;0.80;;;20.30;82.20;;;;;;4984247;28;20211;-65
2023/06/10 03:43:13;;;;;;;1.15;1.00;;;20.30;81.90;;;;;;4983575;28;20253;-65
2023/06/10 03:45:40;;;;;;;0.93;0.93;;;20.30;81.60;;;;;;4975688;28;20230;-65
2023/06/10 03:48:09;;;;;;;1.80;0.98;;;20.30;81.30;;;;;;4980204;28;20227;-65
2023/06/10 03:50:47;;;;;;;0.88;0.88;;;20.40;81.20;;;;;;4971245;28;20306;-65
2023/06/10 03:53:14;;;;;;;1.00;1.00;;;20.40;81.00;;;;;;4988427;28;20618;-65
2023/06/10 03:55:44;;;;;;;4.20;1.00;;;20.40;80.90;;;;;;4996834;28;20243;-65
2023/06/10 03:58:13;;;;;;;0.93;0.90;;;20.40;80.70;;;;;;4960749;28;20208;-65
2023/06/10 04:00:42;;;;;;;0.82;0.80;;;20.40;80.50;;;;;;4972932;28;20211;-64
2023/06/10 04:03:14;;;;;;;1.02;1.00;;;20.40;80.30;;;;;;4980930;28;20212;-65
2023/06/10 04:05:46;;;;;;;1.00;1.00;;;20.40;80.20;;;;;;4968632;28;20771;-65
2023/06/10 04:08:13;;;;;;;1.00;1.00;;;20.40;79.80;;;;;;4994990;28;20202;-65
2023/06/10 04:10:40;;;;;;;0.98;0.90;;;20.40;79.70;;;;;;4980342;28;20250;-65
2023/06/10 04:13:07;;;;;;;1.50;1.40;;;20.40;79.70;;;;;;4986930;28;20262;-65
2023/06/10 04:15:40;;;;;;;1.13;0.98;;;20.40;79.60;;;;;;4983552;28;20321;-65
2023/06/10 04:18:11;;;;;;;1.30;1.20;;;20.40;79.50;;;;;;4979856;28;20211;-65
2023/06/10 04:20:38;;;;;;;2.97;1.52;;;20.40;79.30;;;;;;4972603;28;20295;-65
2023/06/10 04:23:07;;;;;;;2.35;1.10;;;20.40;79.00;;;;;;4989630;28;20215;-65
2023/06/10 04:25:35;;;;;;;1.10;1.10;;;20.40;79.00;;;;;;4974265;28;20200;-65
2023/06/10 04:28:02;;;;;;;3.38;1.73;;;20.40;78.90;;;;;;4991750;28;20211;-65
2023/06/10 04:30:31;;;;;;;2.75;1.40;;;20.40;78.60;;;;;;4991309;28;20700;-65
2023/06/10 04:32:58;;;;;;;1.50;1.38;;;20.40;78.60;;;;;;4989282;28;20266;-65
2023/06/10 04:35:26;;;;;;;1.42;1.33;;;20.40;78.60;;;;;;4996822;28;20217;-65
2023/06/10 04:37:53;;;;;;;1.40;1.30;;;20.30;78.70;;;;;;4989290;28;20223;-65
2023/06/10 04:40:22;;;;;;;1.20;1.20;;;20.30;78.70;;;;;;4974324;28;20526;-65
2023/06/10 04:42:50;;;;;;;1.40;1.30;;;20.40;78.60;;;;;;4974528;28;20672;-65
2023/06/10 04:45:17;;;;;;;1.70;1.40;;;20.40;78.50;;;;;;4990389;28;20770;-65
2023/06/10 04:47:44;;;;;;;1.48;1.35;;;20.40;78.30;;;;;;4990273;28;20204;-65
2023/06/10 04:50:12;;;;;;;3.10;1.40;;;20.40;78.30;;;;;;4971316;28;20211;-65
2023/06/10 04:52:41;;;;;;;4.20;1.70;;;20.40;78.00;;;;;;4990166;28;20262;-65
2023/06/10 04:55:09;;;;;;;2.38;1.10;;;20.40;77.90;;;;;;4984531;28;20239;-65
2023/06/10 04:57:38;;;;;;;1.33;1.23;;;20.50;78.00;;;;;;4980495;28;20220;-65
2023/06/10 05:00:06;;;;;;;3.00;1.20;;;20.50;78.10;;;;;;4981370;28;20231;-65
2023/06/10 05:02:33;;;;;;;2.55;1.30;;;20.50;78.10;;;;;;4976873;28;20204;-65
2023/06/10 05:05:00;;;;;;;2.58;1.00;;;20.50;78.00;;;;;;4976520;28;20697;-65
2023/06/10 05:07:27;;;;;;;1.50;1.40;;;20.60;78.00;;;;;;4965600;28;20215;-65
2023/06/10 05:09:54;;;;;;;1.35;1.30;;;20.60;77.60;;;;;;4972103;28;20230;-66
2023/06/10 05:12:22;;;;;;;1.20;1.20;;;20.60;77.40;;;;;;4965676;28;20600;-66
2023/06/10 05:14:50;;;;;;;2.42;1.63;;;20.60;77.20;;;;;;4975506;28;20247;-65
2023/06/10 05:17:17;;;;;;;1.98;1.25;;;20.60;76.70;;;;;;4965830;28;20228;-65
2023/06/10 05:19:44;;;;;;;1.70;1.60;;;20.60;76.80;;;;;;4957620;28;20205;-65
2023/06/10 05:22:12;;;;;;;1.30;1.20;;;20.50;76.60;;;;;;4962666;28;20620;-65
2023/06/10 05:24:39;;;;;;;2.75;1.40;;;20.60;76.70;;;;;;4973389;28;20589;-65
2023/06/10 05:27:06;;;;;;;3.05;1.63;;;20.60;76.50;;;;;;4962773;28;20559;-66
2023/06/10 05:29:34;;;;;;;1.50;1.30;;;20.60;76.30;;;;;;4961884;28;20200;-66
2023/06/10 05:32:03;;;;;;;2.03;1.40;;;20.50;76.20;;;;;;4965027;28;20208;-66
2023/06/10 05:34:30;;;;;;;2.15;1.50;;;20.50;76.20;;;;;;4974695;28;20290;-66
2023/06/10 05:36:57;;;;;;;1.83;1.20;;;20.50;76.30;;;;;;4964934;28;20196;-66
2023/06/10 05:39:24;;;;;;;1.50;1.40;;;20.50;76.40;;;;;;4971100;28;20296;-66
2023/06/10 05:41:51;;;;;;;1.58;1.48;;;20.50;76.40;;;;;;4971639;28;20208;-66
2023/06/10 05:44:18;;;;;;;2.80;1.70;;;20.50;76.30;;;;;;4968071;28;20192;-66
2023/06/10 05:46:45;;;;;;;4.35;1.40;;;20.40;76.20;;;;;;4970478;28;20204;-66
2023/06/10 05:49:13;;;;;;;1.52;1.42;;;20.40;76.00;;;;;;4968643;28;20235;-66
2023/06/10 05:51:40;;;;;;;1.60;1.42;;;20.40;75.60;;;;;;4969992;28;20185;-66
2023/06/10 05:54:07;;;;;;;2.28;1.80;;;20.40;75.40;;;;;;4980328;28;20259;-66
2023/06/10 05:56:35;;;;;;;1.77;1.65;;;20.50;75.20;;;;;;5005160;28;20620;-66
2023/06/10 05:59:02;;;;;;;1.55;1.45;;;20.40;75.00;;;;;;4989970;28;20649;-66
2023/06/10 06:01:29;;;;;;;2.03;1.38;;;20.40;75.30;;;;;;4996936;28;20199;-66
2023/06/10 06:03:56;;;;;;;2.55;1.25;;;20.50;75.50;;;;;;4993219;28;20222;-66
2023/06/10 06:06:24;;;;;;;1.92;1.10;;;20.50;75.70;;;;;;4994999;28;20242;-66
2023/06/10 06:08:52;;;;;;;1.10;1.10;;;20.50;75.80;;;;;;4982318;28;20255;-66
2023/06/10 06:11:19;;;;;;;1.30;1.20;;;20.50;75.90;;;;;;4985614;28;20255;-66
2023/06/10 06:13:48;;;;;;;1.35;1.20;;;20.50;75.90;;;;;;4996307;28;20245;-66
2023/06/10 06:16:15;;;;;;;2.97;1.80;;;20.50;75.80;;;;;;4985255;28;20216;-66
2023/06/10 06:18:42;;;;;;;3.92;1.23;;;20.50;75.70;;;;;;4984738;28;20656;-66
2023/06/10 06:21:09;;;;;;;2.03;1.30;;;20.50;75.60;;;;;;4980377;28;20892;-66
2023/06/10 06:23:37;;;;;;;2.05;1.30;;;20.50;75.70;;;;;;4989332;28;20200;-66
2023/06/10 06:26:04;;;;;;;1.27;1.10;;;20.50;75.60;;;;;;4992745;28;20192;-65
2023/06/10 06:28:31;;;;;;;3.65;1.63;;;20.50;76.40;;;;;;4979074;28;20208;-66
2023/06/10 06:30:59;;;;;;;2.10;1.50;;;20.50;75.80;;;;;;4980725;28;20201;-66
2023/06/10 06:33:26;;;;;;;1.40;1.27;;;20.50;75.70;;;;;;4983132;28;20204;-66
2023/06/10 06:35:53;;;;;;;2.50;1.23;;;20.60;75.90;;;;;;4992154;28;20757;-66
2023/06/10 06:38:20;;;;;;;3.78;1.67;;;20.60;76.10;;;;;;4993613;28;20306;-66
2023/06/10 06:40:49;;;;;;;2.10;1.50;;;20.60;75.90;;;;;;4965025;28;20212;-66
2023/06/10 06:43:17;;;;;;;7.18;1.60;;;20.60;75.70;;;;;;4984088;28;20635;-66
2023/06/10 06:46:04;;;;;;;3.00;1.70;;;20.60;75.60;;;;;;4980939;28;20204;-66
2023/06/10 06:48:31;;;;;;;2.17;1.25;;;20.70;75.70;;;;;;4989476;28;20204;-65
2023/06/10 06:50:58;;;;;;;1.02;0.98;;;20.70;75.90;;;;;;4977055;28;20247;-66
2023/06/10 06:53:26;;;;;;;1.40;0.93;;;20.70;75.90;;;;;;4991593;28;20196;-65
2023/06/10 06:55:54;;;;;;;2.72;1.20;;;20.80;76.10;;;;;;5005615;28;20274;-66
2023/06/10 06:58:21;;;;;;;3.15;1.00;;;20.80;77.20;;;;;;4992029;28;20223;-66
2023/06/10 07:00:48;;;;;;;2.78;1.50;;;20.80;76.60;;;;;;4988004;28;20238;-66
2023/06/10 07:03:15;;;;;;;2.88;1.20;;;20.80;76.30;;;;;;4987786;28;20220;-66
2023/06/10 07:05:42;;;;;;;2.13;1.40;;;20.80;76.50;;;;;;4997888;28;20286;-65
2023/06/10 07:08:10;;;;;;;3.90;1.10;;;20.80;76.80;;;;;;4991831;28;20234;-66
2023/06/10 07:10:37;;;;;;;1.25;1.10;;;20.90;77.00;;;;;;5004493;28;20199;-66
2023/06/10 07:13:05;;;;;;;5.07;1.20;;;20.90;77.20;;;;;;4985007;28;20196;-65
2023/06/10 07:15:33;;;;;;;2.92;1.42;;;21.00;76.80;;;;;;5001642;28;20339;-65
2023/06/10 07:18:00;;;;;;;2.10;1.20;;;21.00;76.60;;;;;;4994407;28;20195;-66
2023/06/10 07:20:27;;;;;;;1.30;1.10;;;21.00;76.60;;;;;;4993101;28;20203;-65
2023/06/10 07:22:54;;;;;;;1.33;0.85;;;21.10;77.10;;;;;;4993711;28;20288;-65
2023/06/10 07:25:21;;;;;;;0.80;0.80;;;21.10;77.50;;;;;;4999830;28;20215;-65
2023/06/10 07:27:48;;;;;;;6.97;1.67;;;21.10;77.70;;;;;;4990471;28;20699;-66
2023/06/10 07:30:17;;;;;;;1.15;1.05;;;21.20;77.70;;;;;;4990349;28;20581;-66
2023/06/10 07:32:44;;;;;;;2.75;1.30;;;21.20;77.50;;;;;;4987915;28;20207;-65
2023/06/10 07:35:11;;;;;;;1.15;0.93;;;21.20;77.40;;;;;;4996530;28;20624;-65
2023/06/10 07:37:38;;;;;;;4.03;1.25;;;21.20;77.00;;;;;;4985994;28;20414;-66
2023/06/10 07:40:06;;;;;;;1.05;0.88;;;21.30;76.60;;;;;;4988430;28;20671;-65
2023/06/10 07:42:36;;;;;;;3.60;1.10;;;21.30;76.40;;;;;;4989238;28;20204;-65
2023/06/10 07:45:04;;;;;;;1.77;1.20;;;21.40;76.00;;;;;;4971626;28;20196;-66
2023/06/10 07:47:34;;;;;;;2.17;1.10;;;21.40;75.40;;;;;;4985702;28;20203;-65
2023/06/10 07:50:01;;;;;;;1.48;1.20;;;21.40;75.40;;;;;;4990033;28;20200;-65
2023/06/10 07:52:28;;;;;;;3.40;1.27;;;21.50;75.30;;;;;;4994031;28;20196;-66
2023/06/10 07:54:55;;;;;;;1.05;0.98;;;21.50;74.60;;;;;;4974519;28;20236;-66
2023/06/10 07:57:22;;;;;;;5.07;1.15;;;21.50;74.40;;;;;;4987094;28;20891;-65
2023/06/10 07:59:49;;;;;;;2.40;0.90;;;21.60;74.50;;;;;;4971188;28;20235;-65
2023/06/10 08:02:16;;;;;;;0.98;0.98;;;21.60;74.50;;;;;;4973912;28;20208;-66
2023/06/10 08:04:45;;;;;;;3.25;1.30;;;21.60;74.20;;;;;;4983139;28;20283;-65
2023/06/10 08:07:12;;;;;;;0.82;0.82;;;21.60;73.90;;;;;;4983588;28;20208;-65
2023/06/10 08:09:39;;;;;;;1.08;0.90;;;21.60;73.80;;;;;;4992320;28;20230;-65
2023/06/10 08:12:08;;;;;;;1.15;0.98;;;21.60;73.80;;;;;;4992616;28;20317;-66
2023/06/10 08:14:38;;;;;;;3.90;0.90;;;21.70;73.20;;;;;;4974216;28;20218;-65
2023/06/10 08:17:06;;;;;;;1.30;1.20;;;21.70;72.70;;;;;;4991347;28;20200;-65
2023/06/10 08:19:33;;;;;;;1.02;1.00;;;21.80;72.70;;;;;;4992208;28;20195;-65
2023/06/10 08:22:01;;;;;;;2.25;0.85;;;21.80;72.90;;;;;;4978736;28;20192;-66
2023/06/10 08:24:29;;;;;;;1.15;1.05;;;21.90;73.30;;;;;;4990573;28;20188;-66
2023/06/10 08:26:56;;;;;;;2.08;0.73;;;22.00;73.60;;;;;;4991993;28;20681;-65
2023/06/10 08:29:25;;;;;;;1.25;1.00;;;22.00;73.60;;;;;;4980204;28;20204;-65
2023/06/10 08:31:52;;;;;;;3.15;1.10;;;22.10;73.20;;;;;;4984670;28;20540;-65
2023/06/10 08:34:19;;;;;;;2.85;1.10;;;22.10;73.00;;;;;;4984642;28;20230;-65
2023/06/10 08:36:47;;;;;;;2.22;1.10;;;22.00;73.00;;;;;;4980797;28;20586;-65
2023/06/10 08:39:15;;;;;;;1.33;0.90;;;22.10;73.10;;;;;;4976708;28;20200;-65
2023/06/10 08:41:44;;;;;;;1.10;1.10;;;22.20;72.80;;;;;;4992013;28;20208;-65
2023/06/10 08:44:18;;;;;;;1.23;1.00;;;22.20;73.00;;;;;;4991673;28;20250;-65
2023/06/10 08:46:47;;;;;;;1.45;1.35;;;22.20;72.70;;;;;;4978401;28;20275;-65
2023/06/10 08:49:20;;;;;;;4.10;1.25;;;22.30;72.80;;;;;;4978183;28;20204;-65
2023/06/10 08:51:51;;;;;;;3.13;1.27;;;22.30;72.80;;;;;;4985512;28;20203;-66
2023/06/10 08:54:24;;;;;;;3.67;1.17;;;22.30;72.60;;;;;;4972121;28;20293;-65
2023/06/10 08:56:54;;;;;;;5.93;1.15;;;22.30;73.00;;;;;;4991154;28;20224;-66
2023/06/10 08:59:22;;;;;;;7.53;1.13;;;22.40;73.30;;;;;;4991589;28;20603;-65
2023/06/10 09:01:49;;;;;;;2.38;1.10;;;22.50;73.30;;;;;;4992901;28;20248;-66
2023/06/10 09:04:17;;;;;;;3.30;1.15;;;22.50;73.10;;;;;;4983767;28;20204;-66
2023/06/10 09:06:46;;;;;;;3.25;1.13;;;22.50;73.50;;;;;;4991319;28;20217;-65
2023/06/10 09:09:14;;;;;;;4.30;1.30;;;22.50;73.90;;;;;;4991373;28;20208;-65
2023/06/10 09:11:44;;;;;;;2.60;1.13;;;22.60;73.40;;;;;;4991542;28;20196;-65
2023/06/10 09:14:11;;;;;;;2.22;1.10;;;22.60;72.90;;;;;;4991464;28;20727;-66
2023/06/10 09:16:39;;;;;;;5.57;1.00;;;22.60;72.80;;;;;;4991020;28;20210;-65
2023/06/10 09:19:08;;;;;;;2.88;1.05;;;22.60;72.40;;;;;;4990965;28;20214;-66
2023/06/10 09:21:35;;;;;;;1.98;1.02;;;22.60;72.20;;;;;;4990871;28;20636;-66
2023/06/10 09:24:03;;;;;;;1.42;1.00;;;22.70;72.60;;;;;;4990997;28;20211;-65
2023/06/10 09:26:30;;;;;;;0.80;0.80;;;22.70;73.00;;;;;;4990928;28;20217;-66
2023/06/10 09:29:04;;;;;;;1.60;1.08;;;22.80;72.80;;;;;;4991585;28;20274;-66
2023/06/10 09:31:32;;;;;;;2.20;1.00;;;22.90;73.00;;;;;;4988463;28;20188;-65
2023/06/10 09:34:07;;;;;;;1.25;1.15;;;23.00;73.40;;;;;;4977820;28;20199;-66
2023/06/10 09:36:34;;;;;;;4.18;1.13;;;22.90;73.30;;;;;;4988778;28;20207;-65
2023/06/10 09:39:01;;;;;;;2.58;1.10;;;22.90;73.70;;;;;;4990923;28;20612;-66
2023/06/10 09:41:34;;;;;;;1.05;1.05;;;22.90;74.20;;;;;;4973751;28;20604;-65
2023/06/10 09:44:03;;;;;;;1.77;0.90;;;22.90;74.40;;;;;;4991649;28;20673;-65
2023/06/10 09:46:33;;;;;;;4.72;1.20;;;23.00;74.90;;;;;;4977477;28;20344;-65
2023/06/10 09:49:00;;;;;;;5.32;1.25;;;23.10;75.00;;;;;;4985848;28;20201;-65
2023/06/10 09:51:27;;;;;;;2.75;0.90;;;23.20;75.10;;;;;;4972746;28;20307;-65
2023/06/10 09:53:54;;;;;;;1.23;1.10;;;23.20;75.00;;;;;;4989898;28;20236;-65
2023/06/10 09:56:23;;;;;;;3.17;1.23;;;23.20;74.60;;;;;;4987873;28;20208;-66
2023/06/10 09:58:54;;;;;;;1.95;1.08;;;23.20;74.50;;;;;;4989992;28;20204;-66
2023/06/10 10:01:24;;;;;;;1.52;1.13;;;23.20;75.00;;;;;;4986776;28;20251;-66
2023/06/10 10:03:52;;;;;;;1.05;0.90;;;23.30;75.10;;;;;;4999361;28;20206;-65
2023/06/10 10:06:20;;;;;;;2.42;1.02;;;23.30;74.70;;;;;;4974801;28;20271;-65
2023/06/10 10:08:49;;;;;;;1.33;1.10;;;23.40;74.30;;;;;;4985487;28;20266;-66
2023/06/10 10:11:18;;;;;;;3.13;1.13;;;23.40;74.10;;;;;;4954044;28;20213;-66
2023/06/10 10:13:47;;;;;;;1.08;0.90;;;23.40;74.10;;;;;;4989333;28;20227;-66
2023/06/10 10:16:18;;;;;;;1.10;1.10;;;23.40;73.90;;;;;;4974595;28;20216;-65
2023/06/10 10:18:50;;;;;;;1.17;1.17;;;23.40;74.00;;;;;;4975709;28;20302;-65
2023/06/10 10:21:22;;;;;;;3.90;1.00;;;23.50;74.40;;;;;;4982072;28;20310;-65
2023/06/10 10:23:54;;;;;;;1.70;1.10;;;23.50;73.80;;;;;;4992336;28;20196;-65
2023/06/10 10:26:22;;;;;;;3.55;1.13;;;23.50;73.50;;;;;;4984526;28;20715;-65
2023/06/10 10:28:57;;;;;;;2.67;1.38;;;23.60;74.20;;;;;;4987579;28;20272;-65
2023/06/10 10:31:25;;;;;;;3.25;1.20;;;23.60;73.50;;;;;;4989554;28;20199;-65
2023/06/10 10:33:59;;;;;;;2.60;1.30;;;23.70;73.40;;;;;;4983518;28;20686;-65
2023/06/10 10:36:26;;;;;;;2.90;1.10;;;23.60;73.20;;;;;;4991017;28;20208;-65
2023/06/10 10:38:55;;;;;;;2.55;1.20;;;23.70;72.80;;;;;;4993925;28;20251;-65
2023/06/10 10:41:24;;;;;;;2.90;1.13;;;23.70;72.50;;;;;;4981582;28;20204;-65
2023/06/10 10:43:52;;;;;;;1.70;1.10;;;23.70;72.70;;;;;;4994958;28;20299;-65
2023/06/10 10:46:19;;;;;;;5.75;1.23;;;23.70;72.50;;;;;;4994366;28;20219;-66
2023/06/10 10:48:52;;;;;;;4.88;1.33;;;23.70;72.10;;;;;;4991053;28;20204;-65
2023/06/10 10:51:21;;;;;;;1.27;1.17;;;23.70;72.40;;;;;;4987880;28;20196;-66
2023/06/10 10:54:13;;;;;;;6.78;1.63;;;23.80;72.70;;;;;;4993737;28;20605;-65
2023/06/10 10:56:40;;;;;;;2.47;1.00;;;23.80;72.70;;;;;;4973571;28;21108;-65
2023/06/10 10:59:09;;;;;;;3.72;1.25;;;23.80;72.40;;;;;;4973135;28;20204;-65
2023/06/10 11:01:46;;;;;;;1.52;1.13;;;23.80;71.70;;;;;;5000863;28;20208;-66
2023/06/10 11:04:13;;;;;;;4.00;1.35;;;23.70;71.60;;;;;;4991744;28;20245;-65
2023/06/10 11:06:53;;;;;;;3.35;1.20;;;23.80;71.80;;;;;;4988123;28;20677;-66
2023/06/10 11:09:28;;;;;;;3.33;1.20;;;23.80;72.10;;;;;;4983893;28;20192;-66
2023/06/10 11:11:59;;;;;;;1.33;1.02;;;23.80;71.90;;;;;;4978125;28;20287;-65
2023/06/10 11:14:29;;;;;;;2.65;1.00;;;23.90;71.50;;;;;;4989727;28;20239;-65
2023/06/10 11:16:59;;;;;;;2.13;1.08;;;23.90;71.30;;;;;;4944112;28;20232;-65
2023/06/10 11:19:36;;;;;;;2.22;1.23;;;24.00;71.20;;;;;;4983087;28;20200;-66
2023/06/10 11:22:06;;;;;;;3.17;1.40;;;24.00;71.00;;;;;;4991968;28;20207;-65
2023/06/10 11:24:33;;;;;;;7.22;1.63;;;24.00;70.30;;;;;;4989299;28;20188;-65
2023/06/10 11:27:18;;;;;;;1.02;1.00;;;24.00;69.40;;;;;;4974379;28;20497;-65
2023/06/10 11:30:18;;;;;;;3.28;1.15;;;24.00;69.20;;;;;;4986090;28;20231;-65
2023/06/10 11:32:45;;;;;;;3.17;1.42;;;23.90;68.70;;;;;;4989540;28;20258;-65
2023/06/10 11:35:13;;;;;;;1.48;1.33;;;23.90;68.30;;;;;;4993796;28;20223;-65
2023/06/10 11:37:41;;;;;;;3.30;1.15;;;23.80;68.70;;;;;;4991589;28;20366;-65
2023/06/10 11:40:09;;;;;;;3.45;1.35;;;23.80;68.60;;;;;;4993296;28;20278;-66
2023/06/10 11:42:41;;;;;;;3.53;1.35;;;23.80;68.90;;;;;;4992810;28;20287;-65
2023/06/10 11:45:09;;;;;;;1.80;1.05;;;23.80;69.50;;;;;;4985129;28;20211;-66
2023/06/10 11:47:36;;;;;;;3.70;1.17;;;23.90;69.80;;;;;;4969455;28;20207;-65
2023/06/10 11:50:03;;;;;;;3.38;1.20;;;24.00;69.90;;;;;;4973410;28;20197;-65
2023/06/10 11:52:33;;;;;;;3.03;1.20;;;24.00;69.20;;;;;;4985371;28;20355;-66
2023/06/10 11:55:02;;;;;;;2.55;1.20;;;24.00;68.80;;;;;;4986839;28;20223;-65
2023/06/10 12:45:13;;;;;;;5.65;1.42;;;23.70;70.10;;;;;;4980040;28;20186;-65
2023/06/10 12:47:42;;;;;;;3.00;1.50;;;23.70;70.10;;;;;;4989717;28;20270;-65
2023/06/10 12:50:11;;;;;;;7.55;1.23;;;23.70;70.10;;;;;;4976807;28;20200;-66
2023/06/10 12:52:38;;;;;;;4.35;1.38;;;23.80;69.90;;;;;;4981270;28;20208;-65
2023/06/10 12:55:06;;;;;;;1.23;0.90;;;23.70;69.90;;;;;;4980832;28;20231;-65
2023/06/10 12:57:33;;;;;;;1.95;1.20;;;23.70;69.80;;;;;;4990649;28;20208;-66
2023/06/10 13:00:04;;;;;;;1.73;1.10;;;23.80;69.70;;;;;;4969026;28;20207;-65
2023/06/10 13:02:31;;;;;;;2.25;1.05;;;23.70;69.50;;;;;;4984965;28;20196;-65
2023/06/10 13:04:59;;;;;;;1.73;1.25;;;23.70;69.40;;;;;;4976998;28;20709;-65
2023/06/10 13:07:26;;;;;;;4.20;1.23;;;23.60;68.60;;;;;;5006369;28;20289;-65
2023/06/10 13:09:53;;;;;;;4.45;1.20;;;23.60;68.60;;;;;;4994609;28;20231;-65
2023/06/10 13:12:20;;;;;;;2.90;1.40;;;23.60;69.00;;;;;;5002394;28;20203;-65
2023/06/10 13:14:48;;;;;;;2.53;1.40;;;23.50;69.00;;;;;;4997901;28;20231;-65
2023/06/10 13:17:15;;;;;;;2.33;1.13;;;23.50;68.90;;;;;;4989618;28;20630;-65
2023/06/10 13:19:42;;;;;;;4.90;1.40;;;23.40;68.40;;;;;;4987543;28;20558;-65
2023/06/10 13:22:11;;;;;;;2.05;1.08;;;23.40;68.50;;;;;;4989603;28;20206;-65
2023/06/10 13:24:40;;;;;;;5.43;1.15;;;23.50;68.90;;;;;;4988955;28;20200;-65
2023/06/10 13:27:07;;;;;;;6.00;1.40;;;23.50;69.10;;;;;;4997658;28;20600;-65
2023/06/10 13:29:34;;;;;;;5.35;1.40;;;23.60;69.20;;;;;;4993191;28;20594;-64
2023/06/10 13:32:01;;;;;;;4.85;1.20;;;23.60;69.10;;;;;;4993520;28;20199;-65
2023/06/10 13:34:29;;;;;;;0.90;0.90;;;23.60;68.80;;;;;;4991423;28;20200;-65
2023/06/10 13:36:56;;;;;;;12.18;1.48;;;23.60;68.90;;;;;;4992609;28;20247;-65
2023/06/10 13:39:24;;;;;;;7.03;1.15;;;23.60;67.90;;;;;;4984867;28;20200;-65
2023/06/10 13:41:51;;;;;;;2.15;1.15;;;23.50;67.10;;;;;;4992129;28;20192;-65
2023/06/10 13:44:18;;;;;;;2.70;1.42;;;23.40;67.20;;;;;;4996022;28;20263;-65